sensor_id;sensor_type;location;lat;lon;timestamp;pressure;altitude;pressure_sealevel;temperature;humidity
41688;BME280;27371;42.686;23.362;2023-04-08T00:01:27;163554.31;;;5.21;64.00
41688;BME280;27371;42.686;23.362;2023-04-08T00:03:53;163604.91;;;5.40;63.43
41688;BME280;27371;42.686;23.362;2023-04-08T00:06:18;163559.66;;;5.23;62.45
41688;BME280;27371;42.686;23.362;2023-04-08T00:08:44;163441.16;;;4.77;63.65
41688;BME280;27371;42.686;23.362;2023-04-08T00:11:09;163337.28;;;4.37;66.05
41688;BME280;27371;42.686;23.362;2023-04-08T00:13:35;163314.69;;;4.29;67.84
41688;BME280;27371;42.686;23.362;2023-04-08T00:16:00;163320.00;;;4.31;68.33
41688;BME280;27371;42.686;23.362;2023-04-08T00:18:26;163337.28;;;4.37;68.28
41688;BME280;27371;42.686;23.362;2023-04-08T00:20:52;163353.25;;;4.43;67.71
41688;BME280;27371;42.686;23.362;2023-04-08T00:23:17;163321.34;;;4.31;67.97
41688;BME280;27371;42.686;23.362;2023-04-08T00:25:45;163365.25;;;4.48;68.02
41688;BME280;27371;42.686;23.362;2023-04-08T00:28:11;163366.56;;;4.49;68.18
41688;BME280;27371;42.686;23.362;2023-04-08T00:30:36;163363.94;;;4.47;67.94
41688;BME280;27371;42.686;23.362;2023-04-08T00:33:02;163374.56;;;4.52;67.66
41688;BME280;27371;42.686;23.362;2023-04-08T00:35:34;163355.94;;;4.44;67.04
41688;BME280;27371;42.686;23.362;2023-04-08T00:37:59;163334.66;;;4.36;67.06
41688;BME280;27371;42.686;23.362;2023-04-08T00:40:25;163346.59;;;4.41;67.31
41688;BME280;27371;42.686;23.362;2023-04-08T00:42:52;163322.66;;;4.32;67.33
41688;BME280;27371;42.686;23.362;2023-04-08T00:45:18;163289.38;;;4.19;67.82
41688;BME280;27371;42.686;23.362;2023-04-08T00:47:45;163312.03;;;4.28;67.93
41688;BME280;27371;42.686;23.362;2023-04-08T00:50:11;163298.72;;;4.22;68.10
41688;BME280;27371;42.686;23.362;2023-04-08T00:52:37;163253.44;;;4.05;68.18
41688;BME280;27371;42.686;23.362;2023-04-08T00:55:03;163302.69;;;4.24;68.18
41688;BME280;27371;42.686;23.362;2023-04-08T00:57:28;163331.97;;;4.35;68.19
41688;BME280;27371;42.686;23.362;2023-04-08T00:59:54;163309.34;;;4.27;68.13
41688;BME280;27371;42.686;23.362;2023-04-08T01:02:30;163359.91;;;4.46;67.38
41688;BME280;27371;42.686;23.362;2023-04-08T01:05:05;163278.75;;;4.15;67.11
41688;BME280;27371;42.686;23.362;2023-04-08T01:07:36;163241.50;;;4.00;68.59
41688;BME280;27371;42.686;23.362;2023-04-08T01:10:15;163226.84;;;3.95;69.83
41688;BME280;27371;42.686;23.362;2023-04-08T01:12:48;163253.44;;;4.05;70.31
41688;BME280;27371;42.686;23.362;2023-04-08T01:15:16;163217.50;;;3.91;69.68
41688;BME280;27371;42.686;23.362;2023-04-08T01:17:42;163278.75;;;4.15;69.27
41688;BME280;27371;42.686;23.362;2023-04-08T01:20:09;163285.41;;;4.17;68.66
41688;BME280;27371;42.686;23.362;2023-04-08T01:28:04;163341.31;;;4.39;68.56
41688;BME280;27371;42.686;23.362;2023-04-08T01:30:32;163306.69;;;4.26;68.10
41688;BME280;27371;42.686;23.362;2023-04-08T01:33:00;163334.66;;;4.36;68.12
41688;BME280;27371;42.686;23.362;2023-04-08T01:35:27;163379.91;;;4.54;67.83
41688;BME280;27371;42.686;23.362;2023-04-08T01:37:53;163417.16;;;4.68;67.54
41688;BME280;27371;42.686;23.362;2023-04-08T01:40:24;163441.16;;;4.77;67.14
41688;BME280;27371;42.686;23.362;2023-04-08T01:42:55;163457.13;;;4.83;66.99
41688;BME280;27371;42.686;23.362;2023-04-08T01:45:31;163445.13;;;4.79;66.83
41688;BME280;27371;42.686;23.362;2023-04-08T01:47:59;163426.50;;;4.72;67.10
41688;BME280;27371;42.686;23.362;2023-04-08T01:50:26;163414.50;;;4.67;67.40
41688;BME280;27371;42.686;23.362;2023-04-08T01:52:52;163409.19;;;4.65;67.45
41688;BME280;27371;42.686;23.362;2023-04-08T01:55:20;163407.84;;;4.64;67.71
41688;BME280;27371;42.686;23.362;2023-04-08T01:57:51;163405.22;;;4.63;67.12
41688;BME280;27371;42.686;23.362;2023-04-08T02:00:23;163317.31;;;4.30;66.25
41688;BME280;27371;42.686;23.362;2023-04-08T02:02:50;163193.56;;;3.82;67.94
41688;BME280;27371;42.686;23.362;2023-04-08T02:05:16;163158.97;;;3.69;69.61
41688;BME280;27371;42.686;23.362;2023-04-08T02:07:42;163115.06;;;3.52;71.63
41688;BME280;27371;42.686;23.362;2023-04-08T02:10:10;163055.22;;;3.29;72.56
41688;BME280;27371;42.686;23.362;2023-04-08T02:12:35;163116.38;;;3.52;73.16
41688;BME280;27371;42.686;23.362;2023-04-08T02:15:01;163131.03;;;3.58;72.76
41688;BME280;27371;42.686;23.362;2023-04-08T02:17:34;163151.00;;;3.66;72.16
41688;BME280;27371;42.686;23.362;2023-04-08T02:20:07;163145.66;;;3.64;71.87
41688;BME280;27371;42.686;23.362;2023-04-08T02:22:43;163164.31;;;3.71;72.31
41688;BME280;27371;42.686;23.362;2023-04-08T02:25:14;163186.91;;;3.79;71.92
41688;BME280;27371;42.686;23.362;2023-04-08T02:27:40;163213.53;;;3.90;71.75
41688;BME280;27371;42.686;23.362;2023-04-08T02:30:07;163233.50;;;3.97;71.25
41688;BME280;27371;42.686;23.362;2023-04-08T02:32:35;163254.81;;;4.06;71.21
41688;BME280;27371;42.686;23.362;2023-04-08T02:35:01;163244.13;;;4.01;70.85
41688;BME280;27371;42.686;23.362;2023-04-08T02:37:29;163245.44;;;4.02;71.07
41688;BME280;27371;42.686;23.362;2023-04-08T02:40:00;163241.50;;;4.00;71.39
41688;BME280;27371;42.686;23.362;2023-04-08T02:42:25;163222.84;;;3.93;71.94
41688;BME280;27371;42.686;23.362;2023-04-08T02:44:51;163196.22;;;3.83;72.69
41688;BME280;27371;42.686;23.362;2023-04-08T02:47:16;163226.84;;;3.95;72.68
41688;BME280;27371;42.686;23.362;2023-04-08T02:49:42;163238.78;;;3.99;72.61
41688;BME280;27371;42.686;23.362;2023-04-08T02:52:07;163250.78;;;4.04;72.73
41688;BME280;27371;42.686;23.362;2023-04-08T02:54:33;163238.78;;;3.99;72.07
41688;BME280;27371;42.686;23.362;2023-04-08T02:56:58;163149.66;;;3.65;71.26
41688;BME280;27371;42.686;23.362;2023-04-08T02:59:24;163083.16;;;3.40;73.24
41688;BME280;27371;42.686;23.362;2023-04-08T03:01:49;163068.53;;;3.34;74.13
41688;BME280;27371;42.686;23.362;2023-04-08T03:04:15;163063.19;;;3.32;75.83
41688;BME280;27371;42.686;23.362;2023-04-08T03:06:40;163071.19;;;3.35;76.75
41688;BME280;27371;42.686;23.362;2023-04-08T03:09:07;163052.53;;;3.28;77.25
41688;BME280;27371;42.686;23.362;2023-04-08T03:11:32;163071.19;;;3.35;77.67
41688;BME280;27371;42.686;23.362;2023-04-08T03:14:00;163055.22;;;3.29;77.83
41688;BME280;27371;42.686;23.362;2023-04-08T03:16:26;163052.53;;;3.28;77.96
41688;BME280;27371;42.686;23.362;2023-04-08T03:18:52;163065.84;;;3.33;78.35
41688;BME280;27371;42.686;23.362;2023-04-08T03:21:17;163091.13;;;3.43;78.19
41688;BME280;27371;42.686;23.362;2023-04-08T03:23:43;163109.72;;;3.50;77.40
41688;BME280;27371;42.686;23.362;2023-04-08T03:26:09;163093.78;;;3.44;77.19
41688;BME280;27371;42.686;23.362;2023-04-08T03:28:37;163083.16;;;3.40;77.09
41688;BME280;27371;42.686;23.362;2023-04-08T03:31:03;163147.03;;;3.64;76.41
41688;BME280;27371;42.686;23.362;2023-04-08T03:33:28;163164.31;;;3.71;76.05
41688;BME280;27371;42.686;23.362;2023-04-08T03:35:54;163173.59;;;3.74;75.94
41688;BME280;27371;42.686;23.362;2023-04-08T03:38:19;163132.41;;;3.59;75.60
41688;BME280;27371;42.686;23.362;2023-04-08T03:40:47;163180.25;;;3.77;75.43
41688;BME280;27371;42.686;23.362;2023-04-08T03:43:13;163188.22;;;3.80;75.22
41688;BME280;27371;42.686;23.362;2023-04-08T03:45:39;163194.88;;;3.83;75.22
41688;BME280;27371;42.686;23.362;2023-04-08T03:48:05;163225.53;;;3.94;75.21
41688;BME280;27371;42.686;23.362;2023-04-08T03:50:32;163234.84;;;3.98;74.58
41688;BME280;27371;42.686;23.362;2023-04-08T03:53:03;163169.63;;;3.73;71.88
41688;BME280;27371;42.686;23.362;2023-04-08T03:55:29;163044.56;;;3.25;73.20
41688;BME280;27371;42.686;23.362;2023-04-08T03:57:54;163016.63;;;3.14;74.70
41688;BME280;27371;42.686;23.362;2023-04-08T04:00:26;162951.47;;;2.89;75.78
41688;BME280;27371;42.686;23.362;2023-04-08T04:02:51;162978.06;;;2.99;77.25
41688;BME280;27371;42.686;23.362;2023-04-08T04:05:17;162966.09;;;2.95;78.19
41688;BME280;27371;42.686;23.362;2023-04-08T04:07:43;163015.31;;;3.13;78.24
41688;BME280;27371;42.686;23.362;2023-04-08T04:10:09;163047.25;;;3.26;77.85
41688;BME280;27371;42.686;23.362;2023-04-08T04:12:36;163031.25;;;3.20;76.88
41688;BME280;27371;42.686;23.362;2023-04-08T04:15:01;163036.59;;;3.22;76.77
41688;BME280;27371;42.686;23.362;2023-04-08T04:17:27;163060.56;;;3.31;77.01
41688;BME280;27371;42.686;23.362;2023-04-08T04:19:52;163091.13;;;3.43;76.71
41688;BME280;27371;42.686;23.362;2023-04-08T04:22:19;163111.09;;;3.50;76.26
41688;BME280;27371;42.686;23.362;2023-04-08T04:24:48;163157.66;;;3.68;75.94
41688;BME280;27371;42.686;23.362;2023-04-08T04:27:15;163180.25;;;3.77;75.50
41688;BME280;27371;42.686;23.362;2023-04-08T04:29:42;163196.22;;;3.83;75.06
41688;BME280;27371;42.686;23.362;2023-04-08T04:32:10;163249.47;;;4.04;74.47
41688;BME280;27371;42.686;23.362;2023-04-08T04:34:38;163264.09;;;4.09;73.65
41688;BME280;27371;42.686;23.362;2023-04-08T04:37:03;163260.09;;;4.08;72.25
41688;BME280;27371;42.686;23.362;2023-04-08T04:39:29;163282.75;;;4.16;71.58
41688;BME280;27371;42.686;23.362;2023-04-08T04:41:54;163285.41;;;4.17;71.02
41688;BME280;27371;42.686;23.362;2023-04-08T04:44:22;163325.31;;;4.33;70.43
41688;BME280;27371;42.686;23.362;2023-04-08T04:46:48;163318.69;;;4.30;69.84
41688;BME280;27371;42.686;23.362;2023-04-08T04:49:13;163337.28;;;4.37;68.67
41688;BME280;27371;42.686;23.362;2023-04-08T04:51:39;163266.75;;;4.10;67.39
41688;BME280;27371;42.686;23.362;2023-04-08T04:54:05;163201.53;;;3.85;68.10
41688;BME280;27371;42.686;23.362;2023-04-08T04:56:30;163153.69;;;3.67;69.89
41688;BME280;27371;42.686;23.362;2023-04-08T04:58:56;163144.34;;;3.63;71.50
41688;BME280;27371;42.686;23.362;2023-04-08T05:01:21;163144.34;;;3.63;71.31
41688;BME280;27371;42.686;23.362;2023-04-08T05:03:47;163190.94;;;3.81;70.43
41688;BME280;27371;42.686;23.362;2023-04-08T05:06:12;163221.53;;;3.93;69.91
41688;BME280;27371;42.686;23.362;2023-04-08T05:08:38;163230.81;;;3.96;69.57
41688;BME280;27371;42.686;23.362;2023-04-08T05:11:03;163210.91;;;3.89;69.65
41688;BME280;27371;42.686;23.362;2023-04-08T05:13:33;163254.81;;;4.06;69.69
41688;BME280;27371;42.686;23.362;2023-04-08T05:15:58;163270.75;;;4.12;69.55
41688;BME280;27371;42.686;23.362;2023-04-08T05:18:24;163261.47;;;4.08;69.79
41688;BME280;27371;42.686;23.362;2023-04-08T05:20:49;163245.44;;;4.02;69.33
41688;BME280;27371;42.686;23.362;2023-04-08T05:23:15;163119.09;;;3.53;69.45
41688;BME280;27371;42.686;23.362;2023-04-08T05:25:40;163101.75;;;3.47;71.12
41688;BME280;27371;42.686;23.362;2023-04-08T05:28:06;163079.16;;;3.38;72.37
41688;BME280;27371;42.686;23.362;2023-04-08T05:30:34;163128.38;;;3.57;72.96
41688;BME280;27371;42.686;23.362;2023-04-08T05:33:00;163135.03;;;3.60;73.26
41688;BME280;27371;42.686;23.362;2023-04-08T05:35:26;163157.66;;;3.68;72.57
41688;BME280;27371;42.686;23.362;2023-04-08T05:37:51;163237.47;;;3.99;72.15
41688;BME280;27371;42.686;23.362;2023-04-08T05:40:17;163304.06;;;4.24;71.84
41688;BME280;27371;42.686;23.362;2023-04-08T05:42:42;163331.97;;;4.35;71.17
41688;BME280;27371;42.686;23.362;2023-04-08T05:45:09;163373.25;;;4.51;71.04
41688;BME280;27371;42.686;23.362;2023-04-08T05:47:34;163433.19;;;4.74;70.14
41688;BME280;27371;42.686;23.362;2023-04-08T05:50:01;163401.19;;;4.62;68.76
41688;BME280;27371;42.686;23.362;2023-04-08T05:52:26;163294.69;;;4.21;69.16
41688;BME280;27371;42.686;23.362;2023-04-08T05:54:52;163329.31;;;4.34;71.56
41688;BME280;27371;42.686;23.362;2023-04-08T05:57:18;163337.28;;;4.37;71.96
41688;BME280;27371;42.686;23.362;2023-04-08T05:59:43;163351.94;;;4.43;71.97
41688;BME280;27371;42.686;23.362;2023-04-08T06:02:09;163382.53;;;4.55;71.48
41688;BME280;27371;42.686;23.362;2023-04-08T06:04:34;163433.19;;;4.74;70.74
41688;BME280;27371;42.686;23.362;2023-04-08T06:07:00;163461.09;;;4.85;70.33
41688;BME280;27371;42.686;23.362;2023-04-08T06:09:27;163469.13;;;4.88;70.22
41688;BME280;27371;42.686;23.362;2023-04-08T06:11:53;163510.38;;;5.04;69.53
41688;BME280;27371;42.686;23.362;2023-04-08T06:14:18;163531.69;;;5.12;69.62
41688;BME280;27371;42.686;23.362;2023-04-08T06:16:52;163571.66;;;5.27;69.56
41688;BME280;27371;42.686;23.362;2023-04-08T06:19:21;163620.94;;;5.46;69.34
41688;BME280;27371;42.686;23.362;2023-04-08T06:21:46;163635.59;;;5.52;68.69
41688;BME280;27371;42.686;23.362;2023-04-08T06:24:16;163650.25;;;5.57;68.29
41688;BME280;27371;42.686;23.362;2023-04-08T06:26:41;163674.22;;;5.67;68.25
41688;BME280;27371;42.686;23.362;2023-04-08T06:29:07;163724.81;;;5.86;67.54
41688;BME280;27371;42.686;23.362;2023-04-08T06:31:32;163731.50;;;5.89;67.74
41688;BME280;27371;42.686;23.362;2023-04-08T06:33:59;163783.50;;;6.09;67.09
41688;BME280;27371;42.686;23.362;2023-04-08T06:36:25;163815.50;;;6.21;66.94
41688;BME280;27371;42.686;23.362;2023-04-08T06:38:52;163840.81;;;6.31;66.84
41688;BME280;27371;42.686;23.362;2023-04-08T06:41:17;163866.16;;;6.40;67.14
41688;BME280;27371;42.686;23.362;2023-04-08T06:43:48;163876.78;;;6.44;66.47
41688;BME280;27371;42.686;23.362;2023-04-08T06:46:15;163848.78;;;6.34;66.58
41688;BME280;27371;42.686;23.362;2023-04-08T06:48:41;163831.50;;;6.27;67.20
41688;BME280;27371;42.686;23.362;2023-04-08T06:51:06;163808.84;;;6.18;67.63
41688;BME280;27371;42.686;23.362;2023-04-08T06:53:32;163862.13;;;6.39;67.64
41688;BME280;27371;42.686;23.362;2023-04-08T06:55:58;163848.78;;;6.34;67.83
41688;BME280;27371;42.686;23.362;2023-04-08T06:58:24;163819.47;;;6.22;68.22
41688;BME280;27371;42.686;23.362;2023-04-08T07:00:50;163814.19;;;6.20;67.32
41688;BME280;27371;42.686;23.362;2023-04-08T07:03:15;163748.84;;;5.95;67.15
41688;BME280;27371;42.686;23.362;2023-04-08T07:05:41;163658.22;;;5.61;68.88
41688;BME280;27371;42.686;23.362;2023-04-08T07:08:07;163658.22;;;5.61;70.19
41688;BME280;27371;42.686;23.362;2023-04-08T07:10:34;163680.88;;;5.69;70.96
41688;BME280;27371;42.686;23.362;2023-04-08T07:13:00;163772.88;;;6.05;70.89
41688;BME280;27371;42.686;23.362;2023-04-08T07:15:25;163787.53;;;6.10;70.24
41688;BME280;27371;42.686;23.362;2023-04-08T07:17:50;163814.19;;;6.20;69.68
41688;BME280;27371;42.686;23.362;2023-04-08T07:20:16;163884.78;;;6.47;69.06
41688;BME280;27371;42.686;23.362;2023-04-08T07:22:42;163910.13;;;6.57;67.46
41688;BME280;27371;42.686;23.362;2023-04-08T07:25:08;163959.47;;;6.76;66.99
41688;BME280;27371;42.686;23.362;2023-04-08T07:27:35;164014.09;;;6.97;66.39
41688;BME280;27371;42.686;23.362;2023-04-08T07:30:02;164027.44;;;7.02;65.89
41688;BME280;27371;42.686;23.362;2023-04-08T07:32:29;164067.47;;;7.18;65.63
41688;BME280;27371;42.686;23.362;2023-04-08T07:34:55;164060.78;;;7.15;65.07
41688;BME280;27371;42.686;23.362;2023-04-08T07:37:20;164100.75;;;7.30;65.06
41688;BME280;27371;42.686;23.362;2023-04-08T07:39:45;164120.78;;;7.38;64.59
41688;BME280;27371;42.686;23.362;2023-04-08T07:42:11;164107.44;;;7.33;64.95
41688;BME280;27371;42.686;23.362;2023-04-08T07:44:36;164152.81;;;7.50;65.05
41688;BME280;27371;42.686;23.362;2023-04-08T07:47:12;164191.47;;;7.65;65.04
41688;BME280;27371;42.686;23.362;2023-04-08T07:49:37;164180.84;;;7.61;64.33
41688;BME280;27371;42.686;23.362;2023-04-08T07:52:10;164226.19;;;7.78;64.35
41688;BME280;27371;42.686;23.362;2023-04-08T07:54:35;164267.53;;;7.94;63.45
41688;BME280;27371;42.686;23.362;2023-04-08T07:57:02;164167.50;;;7.56;62.46
41688;BME280;27371;42.686;23.362;2023-04-08T07:59:30;164090.13;;;7.26;65.17
41688;BME280;27371;42.686;23.362;2023-04-08T08:01:56;164048.78;;;7.10;66.22
41688;BME280;27371;42.686;23.362;2023-04-08T08:04:25;164100.75;;;7.30;66.85
41688;BME280;27371;42.686;23.362;2023-04-08T08:06:50;164135.44;;;7.44;65.00
41688;BME280;27371;42.686;23.362;2023-04-08T08:09:16;164184.81;;;7.63;64.68
41688;BME280;27371;42.686;23.362;2023-04-08T08:11:41;164252.88;;;7.89;64.76
41688;BME280;27371;42.686;23.362;2023-04-08T08:14:07;164318.25;;;8.14;63.61
41688;BME280;27371;42.686;23.362;2023-04-08T08:16:32;164366.25;;;8.32;61.92
41688;BME280;27371;42.686;23.362;2023-04-08T08:19:01;164378.28;;;8.37;62.06
41688;BME280;27371;42.686;23.362;2023-04-08T08:21:27;164446.41;;;8.63;61.17
41688;BME280;27371;42.686;23.362;2023-04-08T08:23:52;164447.75;;;8.63;61.26
41688;BME280;27371;42.686;23.362;2023-04-08T08:26:19;164487.75;;;8.79;60.64
41688;BME280;27371;42.686;23.362;2023-04-08T08:28:45;164521.16;;;8.91;59.94
41688;BME280;27371;42.686;23.362;2023-04-08T08:31:10;164559.84;;;9.06;59.57
41688;BME280;27371;42.686;23.362;2023-04-08T08:33:36;164598.59;;;9.21;58.76
41688;BME280;27371;42.686;23.362;2023-04-08T08:36:02;164611.97;;;9.26;58.44
41688;BME280;27371;42.686;23.362;2023-04-08T08:38:29;164550.50;;;9.03;59.13
41688;BME280;27371;42.686;23.362;2023-04-08T08:40:56;164561.19;;;9.07;58.39
41688;BME280;27371;42.686;23.362;2023-04-08T08:43:24;164542.50;;;9.00;58.71
41688;BME280;27371;42.686;23.362;2023-04-08T08:45:50;164549.19;;;9.02;58.94
41688;BME280;27371;42.686;23.362;2023-04-08T08:48:15;164545.16;;;9.01;58.74
41688;BME280;27371;42.686;23.362;2023-04-08T08:50:41;164473.06;;;8.73;58.05
41688;BME280;27371;42.686;23.362;2023-04-08T08:53:07;164356.91;;;8.29;60.42
41688;BME280;27371;42.686;23.362;2023-04-08T08:55:32;164356.91;;;8.29;61.14
41688;BME280;27371;42.686;23.362;2023-04-08T08:58:01;164347.59;;;8.25;61.22
41688;BME280;27371;42.686;23.362;2023-04-08T09:00:36;164398.34;;;8.44;61.65
41688;BME280;27371;42.686;23.362;2023-04-08T09:03:25;164378.28;;;8.37;61.71
41688;BME280;27371;42.686;23.362;2023-04-08T09:05:55;164380.94;;;8.38;61.31
41688;BME280;27371;42.686;23.362;2023-04-08T09:08:28;164370.28;;;8.34;62.00
41688;BME280;27371;42.686;23.362;2023-04-08T09:10:55;164391.69;;;8.42;61.98
41688;BME280;27371;42.686;23.362;2023-04-08T09:13:21;164385.00;;;8.39;61.55
41688;BME280;27371;42.686;23.362;2023-04-08T09:16:08;164379.59;;;8.37;61.59
41688;BME280;27371;42.686;23.362;2023-04-08T09:18:35;164405.03;;;8.47;61.63
41688;BME280;27371;42.686;23.362;2023-04-08T09:21:03;164463.75;;;8.69;61.73
41688;BME280;27371;42.686;23.362;2023-04-08T09:26:15;164619.97;;;9.29;60.22
41688;BME280;27371;42.686;23.362;2023-04-08T09:28:42;164658.66;;;9.44;58.92
41688;BME280;27371;42.686;23.362;2023-04-08T09:31:22;164633.28;;;9.34;58.86
41688;BME280;27371;42.686;23.362;2023-04-08T09:33:57;164561.19;;;9.07;60.10
41688;BME280;27371;42.686;23.362;2023-04-08T09:36:22;164615.94;;;9.28;59.76
41688;BME280;27371;42.686;23.362;2023-04-08T09:38:48;164602.56;;;9.23;59.19
41688;BME280;27371;42.686;23.362;2023-04-08T09:41:16;164565.19;;;9.08;60.43
41688;BME280;27371;42.686;23.362;2023-04-08T09:43:50;164594.56;;;9.20;60.48
41688;BME280;27371;42.686;23.362;2023-04-08T09:46:18;164658.66;;;9.44;60.27
41688;BME280;27371;42.686;23.362;2023-04-08T09:48:54;164785.56;;;9.93;58.06
41688;BME280;27371;42.686;23.362;2023-04-08T09:51:23;164821.63;;;10.07;55.99
41688;BME280;27371;42.686;23.362;2023-04-08T09:53:55;164764.19;;;9.85;55.75
41688;BME280;27371;42.686;23.362;2023-04-08T09:56:26;164716.09;;;9.66;56.87
41688;BME280;27371;42.686;23.362;2023-04-08T09:58:59;164728.13;;;9.71;57.04
41688;BME280;27371;42.686;23.362;2023-04-08T10:01:38;164724.09;;;9.69;57.01
41688;BME280;27371;42.686;23.362;2023-04-08T10:04:13;164782.88;;;9.92;56.70
41688;BME280;27371;42.686;23.362;2023-04-08T10:06:39;164754.81;;;9.81;56.20
41688;BME280;27371;42.686;23.362;2023-04-08T10:09:05;164740.13;;;9.75;55.44
41688;BME280;27371;42.686;23.362;2023-04-08T10:11:32;164758.84;;;9.82;56.90
41688;BME280;27371;42.686;23.362;2023-04-08T10:13:58;164822.97;;;10.07;56.49
41688;BME280;27371;42.686;23.362;2023-04-08T10:16:26;164825.63;;;10.08;54.77
41688;BME280;27371;42.686;23.362;2023-04-08T10:18:53;164785.56;;;9.93;55.85
41688;BME280;27371;42.686;23.362;2023-04-08T10:24:01;164777.56;;;9.90;56.02
41688;BME280;27371;42.686;23.362;2023-04-08T10:26:43;164788.22;;;9.94;56.07
41688;BME280;27371;42.686;23.362;2023-04-08T10:31:53;164790.88;;;9.95;55.43
41688;BME280;27371;42.686;23.362;2023-04-08T10:34:19;164809.59;;;10.02;54.63
41688;BME280;27371;42.686;23.362;2023-04-08T10:36:47;164797.56;;;9.97;54.83
41688;BME280;27371;42.686;23.362;2023-04-08T10:39:15;164764.19;;;9.85;55.53
41688;BME280;27371;42.686;23.362;2023-04-08T10:41:50;164820.25;;;10.06;56.01
41688;BME280;27371;42.686;23.362;2023-04-08T10:44:20;164859.03;;;10.21;55.87
41688;BME280;27371;42.686;23.362;2023-04-08T10:46:47;164911.19;;;10.41;54.53
41688;BME280;27371;42.686;23.362;2023-04-08T10:49:14;164940.56;;;10.52;53.01
41688;BME280;27371;42.686;23.362;2023-04-08T10:51:41;164916.53;;;10.43;53.49
41688;BME280;27371;42.686;23.362;2023-04-08T10:54:17;164873.72;;;10.26;53.64
41688;BME280;27371;42.686;23.362;2023-04-08T10:56:48;164949.91;;;10.56;54.15
41688;BME280;27371;42.686;23.362;2023-04-08T10:59:16;165002.06;;;10.76;53.34
41688;BME280;27371;42.686;23.362;2023-04-08T11:01:45;164980.69;;;10.67;52.79
41688;BME280;27371;42.686;23.362;2023-04-08T11:04:14;165052.84;;;10.95;52.77
41688;BME280;27371;42.686;23.362;2023-04-08T11:06:42;165044.84;;;10.92;52.83
41688;BME280;27371;42.686;23.362;2023-04-08T11:09:08;165078.22;;;11.05;52.67
41688;BME280;27371;42.686;23.362;2023-04-08T11:11:36;165122.34;;;11.22;50.85
41688;BME280;27371;42.686;23.362;2023-04-08T11:14:04;165074.25;;;11.03;50.24
41688;BME280;27371;42.686;23.362;2023-04-08T11:16:30;165014.06;;;10.80;50.83
41688;BME280;27371;42.686;23.362;2023-04-08T11:18:56;165038.16;;;10.89;51.50
41688;BME280;27371;42.686;23.362;2023-04-08T11:21:23;165022.09;;;10.83;52.56
41688;BME280;27371;42.686;23.362;2023-04-08T11:23:49;164948.59;;;10.55;52.49
41688;BME280;27371;42.686;23.362;2023-04-08T11:26:22;164947.25;;;10.55;51.47
41688;BME280;27371;42.686;23.362;2023-04-08T11:28:48;164966.00;;;10.62;49.80
41688;BME280;27371;42.686;23.362;2023-04-08T11:31:15;165028.75;;;10.86;49.25
41688;BME280;27371;42.686;23.362;2023-04-08T11:33:46;165088.94;;;11.09;48.75
41688;BME280;27371;42.686;23.362;2023-04-08T11:36:13;165091.59;;;11.10;48.05
41688;BME280;27371;42.686;23.362;2023-04-08T11:38:39;165137.03;;;11.27;47.96
41688;BME280;27371;42.686;23.362;2023-04-08T11:41:08;165173.13;;;11.41;48.64
41688;BME280;27371;42.686;23.362;2023-04-08T11:43:35;165206.59;;;11.54;48.38
41688;BME280;27371;42.686;23.362;2023-04-08T11:46:10;165221.28;;;11.59;48.22
41688;BME280;27371;42.686;23.362;2023-04-08T11:48:37;165246.72;;;11.69;47.10
41688;BME280;27371;42.686;23.362;2023-04-08T11:51:07;165308.25;;;11.93;46.58
41688;BME280;27371;42.686;23.362;2023-04-08T11:53:38;165329.66;;;12.01;45.76
41688;BME280;27371;42.686;23.362;2023-04-08T11:56:20;165274.81;;;11.80;45.71
41688;BME280;27371;42.686;23.362;2023-04-08T11:58:47;165278.78;;;11.81;44.85
41688;BME280;27371;42.686;23.362;2023-04-08T12:01:16;165294.88;;;11.88;44.93
41688;BME280;27371;42.686;23.362;2023-04-08T12:06:20;165312.28;;;11.94;44.76
41688;BME280;27371;42.686;23.362;2023-04-08T12:08:46;165337.69;;;12.04;44.83
41688;BME280;27371;42.686;23.362;2023-04-08T12:11:12;165296.25;;;11.88;45.55
41688;BME280;27371;42.686;23.362;2023-04-08T12:13:40;165244.00;;;11.68;45.99
41688;BME280;27371;42.686;23.362;2023-04-08T12:16:07;165233.34;;;11.64;46.88
41688;BME280;27371;42.686;23.362;2023-04-08T12:18:34;165214.59;;;11.57;46.23
41688;BME280;27371;42.686;23.362;2023-04-08T12:21:00;165189.22;;;11.47;46.26
41688;BME280;27371;42.686;23.362;2023-04-08T12:23:26;165159.81;;;11.36;46.61
41688;BME280;27371;42.686;23.362;2023-04-08T12:25:51;165201.22;;;11.52;45.88
41688;BME280;27371;42.686;23.362;2023-04-08T12:28:17;165207.91;;;11.54;45.29
41688;BME280;27371;42.686;23.362;2023-04-08T12:30:42;165249.38;;;11.70;44.58
41688;BME280;27371;42.686;23.362;2023-04-08T12:33:08;165250.69;;;11.71;44.80
41688;BME280;27371;42.686;23.362;2023-04-08T12:35:33;165244.00;;;11.68;44.50
41688;BME280;27371;42.686;23.362;2023-04-08T12:37:59;165278.78;;;11.81;45.03
41688;BME280;27371;42.686;23.362;2023-04-08T12:40:24;165189.22;;;11.47;46.10
41688;BME280;27371;42.686;23.362;2023-04-08T12:42:52;165202.59;;;11.52;45.60
41688;BME280;27371;42.686;23.362;2023-04-08T12:45:18;165177.16;;;11.43;46.33
41688;BME280;27371;42.686;23.362;2023-04-08T12:47:43;165163.78;;;11.37;46.50
41688;BME280;27371;42.686;23.362;2023-04-08T12:50:09;165147.75;;;11.31;47.26
41688;BME280;27371;42.686;23.362;2023-04-08T12:52:35;165146.44;;;11.31;48.31
41688;BME280;27371;42.686;23.362;2023-04-08T12:55:00;165125.03;;;11.23;49.48
41688;BME280;27371;42.686;23.362;2023-04-08T12:57:26;165039.47;;;10.90;49.76
41688;BME280;27371;42.686;23.362;2023-04-08T12:59:53;165002.06;;;10.76;50.17
41688;BME280;27371;42.686;23.362;2023-04-08T13:02:25;165015.44;;;10.81;50.74
41688;BME280;27371;42.686;23.362;2023-04-08T13:04:51;164984.66;;;10.69;51.21